Time;durP1;ratioP1;P1;durP2;ratioP2;P2;SDS_P1;SDS_P2;PMS_P1;PMS_P2;Temp;Humidity;BMP_temperature;BMP_pressure;BME280_temperature;BME280_humidity;BME280_pressure;Samples;Min_cycle;Max_cycle;Signal;HPM_P1;HPM_P2
2024/04/16 00:00:51;;;;;;;;;;;;;;;;;;;;;
2024/04/16 00:07:16;;;;;;;0.00;0.00;;;;;;;6.32;92.61;99858.81;6304806;22;20053;-75
2024/04/16 00:09:41;;;;;;;0.00;0.00;;;;;;;6.29;92.54;99845.75;6276525;22;20025;-74
2024/04/16 00:12:11;;;;;;;0.00;0.00;;;;;;;6.36;92.53;99857.25;6274692;22;19997;-76
2024/04/16 00:14:49;;;;;;;;;;;;;;;;;;;;;
2024/04/16 00:17:27;;;;;;;0.00;0.00;;;;;;;6.07;92.90;99826.72;6472056;22;19990;-75
2024/04/16 00:20:33;;;;;;;0.10;0.10;;;;;;;6.02;92.96;99832.91;6432661;22;19998;-77
2024/04/16 00:22:59;;;;;;;0.00;0.00;;;;;;;6.05;93.80;99850.59;6360762;22;20041;-75
2024/04/16 00:25:33;;;;;;;0.10;0.10;;;;;;;6.16;94.04;99856.97;6425722;22;20406;-77
2024/04/16 00:28:08;;;;;;;;;;;;;;;6.36;94.29;99884.41;6429203;22;20080;-76
2024/04/16 00:30:57;;;;;;;0.00;0.00;;;;;;;6.21;95.03;99876.06;6389451;22;19933;-75
2024/04/16 00:36:20;;;;;;;;;;;;;;;;;;;;;
2024/04/16 00:38:46;;;;;;;0.00;0.00;;;;;;;6.03;96.51;99864.41;6577421;21;20004;-75
2024/04/16 00:42:02;;;;;;;;;;;;;;;;;;;;;
2024/04/16 00:45:05;;;;;;;;;;;;;;;;;;;;;
2024/04/16 00:47:52;;;;;;;;;;;;;;;;;;;;;
2024/04/16 00:53:21;;;;;;;0.00;0.00;;;;;;;6.07;97.98;99865.53;6468313;21;20288;-75
2024/04/16 00:57:24;;;;;;;0.10;0.10;;;;;;;6.18;97.90;99887.44;6578850;21;19996;-76
2024/04/16 00:59:52;;;;;;;0.00;0.00;;;;;;;6.19;97.97;99894.47;6463957;22;20001;-77
2024/04/16 01:02:18;;;;;;;0.10;0.10;;;;;;;6.14;98.52;99880.84;6449346;22;19998;-76
2024/04/16 01:05:05;;;;;;;0.00;0.00;;;;;;;5.99;98.54;99841.56;6532007;21;19999;-76
2024/04/16 01:07:55;;;;;;;0.00;0.00;;;;;;;6.08;98.49;99859.03;6579652;21;19992;-76
2024/04/16 01:10:48;;;;;;;0.00;0.00;;;;;;;5.88;99.30;99845.16;6538514;21;20004;-76
2024/04/16 01:13:32;;;;;;;;;;;;;;;;;;;;;
2024/04/16 01:16:13;;;;;;;;;;;;;;;6.10;100.00;99892.22;6574486;21;20406;-75
2024/04/16 01:22:50;;;;;;;;;;;;;;;6.08;100.00;99899.75;6188600;22;20009;-77
2024/04/16 01:25:42;;;;;;;;;;;;;;;;;;;;;
2024/04/16 01:28:07;;;;;;;0.00;0.00;;;;;;;5.98;100.00;99894.19;6523640;22;20419;-75
2024/04/16 01:30:50;;;;;;;0.00;0.00;;;;;;;6.02;100.00;99889.91;6480953;22;19999;-75
2024/04/16 01:33:16;;;;;;;0.10;0.10;;;;;;;5.97;100.00;99887.09;6527625;22;19997;-75
2024/04/16 01:35:53;;;;;;;0.10;0.10;;;;;;;5.90;100.00;99892.69;6481874;22;20007;-74
2024/04/16 01:39:05;;;;;;;0.00;0.00;;;;;;;6.03;100.00;99909.72;6478421;22;20245;-74
2024/04/16 01:49:46;;;;;;;;;;;;;;;;;;;;;
2024/04/16 01:52:09;;;;;;;0.00;0.00;;;;;;;5.66;100.00;99843.19;6513018;22;19993;-79
2024/04/16 01:54:52;;;;;;;0.00;0.00;;;;;;;5.70;100.00;99857.09;6443801;22;20016;-80
2024/04/16 01:57:17;;;;;;;0.00;0.00;;;;;;;5.83;100.00;99880.38;6441487;22;20236;-78
2024/04/16 02:00:17;;;;;;;0.10;0.10;;;;;;;6.03;100.00;99891.56;6487619;22;20066;-79
2024/04/16 02:03:03;;;;;;;0.00;0.00;;;;;;;5.63;100.00;99832.84;6515189;22;20432;-79
2024/04/16 02:05:29;;;;;;;0.00;0.00;;;;;;;5.87;100.00;99876.91;6531977;21;19989;-79
2024/04/16 02:07:55;;;;;;;0.00;0.00;;;;;;;5.95;100.00;99878.38;6536063;22;20043;-79
2024/04/16 02:16:17;;;;;;;;;;;;;;;;;;;;;
2024/04/16 02:19:23;;;;;;;0.10;0.10;;;;;;;6.02;100.00;99911.63;6535924;21;20009;-81
2024/04/16 02:25:22;;;;;;;0.00;0.00;;;;;;;5.67;100.00;99838.63;6541577;21;20007;-81
2024/04/16 02:27:48;;;;;;;0.10;0.10;;;;;;;5.92;100.00;99878.88;6529739;21;20054;-80
2024/04/16 02:33:20;;;;;;;0.00;0.00;;;;;;;5.94;100.00;99865.84;6358307;22;19999;-79
2024/04/16 02:35:51;;;;;;;0.00;0.00;;;;;;;5.96;100.00;99866.44;6338224;22;20127;-78
2024/04/16 02:38:20;;;;;;;0.10;0.10;;;;;;;6.17;100.00;99907.50;6472962;21;20446;-79
2024/04/16 02:41:22;;;;;;;0.00;0.00;;;;;;;5.95;100.00;99872.94;6538127;21;19997;-81
2024/04/16 02:44:00;;;;;;;;;;;;;;;;;;;;;
2024/04/16 02:47:01;;;;;;;0.00;0.00;;;;;;;5.98;100.00;99887.94;6376603;22;19995;-82
2024/04/16 02:49:43;;;;;;;0.00;0.00;;;;;;;6.14;100.00;99899.84;6286489;22;20002;-81
2024/04/16 02:52:25;;;;;;;0.00;0.00;;;;;;;6.09;100.00;99901.41;6335779;22;20011;-81
2024/04/16 02:54:55;;;;;;;0.00;0.00;;;;;;;5.86;100.00;99869.00;6440095;21;19996;-78
2024/04/16 02:57:26;;;;;;;0.00;0.00;;;;;;;5.75;100.00;99847.16;6538943;21;20011;-77
2024/04/16 02:59:51;;;;;;;0.00;0.00;;;;;;;6.14;100.00;99913.44;6497278;21;20364;-78
2024/04/16 03:02:20;;;;;;;0.00;0.00;;;;;;;5.98;100.00;99887.94;6455658;21;19996;-78
2024/04/16 03:04:50;;;;;;;0.00;0.00;;;;;;;5.72;100.00;99847.66;6494365;21;19992;-79
2024/04/16 03:07:46;;;;;;;0.00;0.00;;;;;;;5.99;100.00;99895.84;6539699;21;20011;-78
2024/04/16 03:10:15;;;;;;;0.00;0.00;;;;;;;5.86;100.00;99882.59;6536384;21;20003;-78
2024/04/16 03:12:58;;;;;;;0.10;0.10;;;;;;;6.08;100.00;99921.47;6536549;21;20034;-77
2024/04/16 03:15:35;;;;;;;0.00;0.00;;;;;;;6.04;100.00;99928.47;6497121;21;20020;-81
2024/04/16 03:18:11;;;;;;;;;;;;;;;;;;;;;
2024/04/16 03:20:37;;;;;;;0.10;0.10;;;;;;;5.66;100.00;99875.75;6585965;21;20012;-79
2024/04/16 03:26:12;;;;;;;0.00;0.00;;;;;;;5.68;100.00;99879.06;6451096;21;19999;-80
2024/04/16 03:28:43;;;;;;;0.00;0.00;;;;;;;5.79;100.00;99895.50;6539062;21;19997;-78
2024/04/16 03:31:46;;;;;;;;;;;;;;;;;;;;;
2024/04/16 03:34:13;;;;;;;0.00;0.00;;;;;;;6.00;100.00;99923.78;6584135;21;19993;-79
2024/04/16 03:36:42;;;;;;;0.00;0.00;;;;;;;5.64;100.00;99871.66;6537180;21;20078;-79
2024/04/16 03:39:07;;;;;;;0.00;0.00;;;;;;;5.99;100.00;99933.84;6539375;21;20001;-79
2024/04/16 03:41:42;;;;;;;;;;;;;;;;;;;;;
2024/04/16 03:44:11;;;;;;;0.10;0.10;;;;;;;5.79;100.00;99911.78;6584808;21;19996;-78
2024/04/16 03:49:44;;;;;;;0.00;0.00;;;;;;;6.02;100.00;99965.91;6541752;21;20445;-78
2024/04/16 03:52:26;;;;;;;;;;;;;;;;;;;;;
2024/04/16 03:55:04;;;;;;;;;;;;;;;;;;;;;
2024/04/16 03:57:31;;;;;;;0.00;0.00;;;;;;;5.80;100.00;99902.53;6584964;21;20007;-81
2024/04/16 04:03:09;;;;;;;0.00;0.00;;;;;;;6.16;100.00;99957.44;6546376;21;20007;-79
2024/04/16 04:06:33;;;;;;;0.00;0.00;;;;;;;6.07;100.00;99946.16;6583815;21;20074;-80
2024/04/16 04:10:18;;;;;;;0.00;0.00;;;;;;;6.09;100.00;99955.72;6334654;22;19999;-81
2024/04/16 04:12:39;;;;;;;0.00;0.00;;;;;;;6.21;100.00;99973.81;6369956;21;20409;-81
2024/04/16 04:15:05;;;;;;;0.00;0.00;;;;;;;5.83;100.00;99912.94;6540963;21;20009;-79
2024/04/16 04:17:31;;;;;;;0.10;0.10;;;;;;;6.15;100.00;99958.50;6537515;21;20062;-79
2024/04/16 04:20:28;;;;;;;0.00;0.00;;;;;;;6.25;100.00;99964.91;6451714;21;20008;-78
2024/04/16 04:26:09;;;;;;;;;;;;;;;;;;;;;
2024/04/16 04:29:01;;;;;;;0.10;0.10;;;;;;;6.38;100.00;99985.47;6580841;21;19997;-79
2024/04/16 04:31:26;;;;;;;0.00;0.00;;;;;;;6.16;100.00;99954.72;6533205;21;20012;-80
2024/04/16 04:33:52;;;;;;;0.00;0.00;;;;;;;6.19;100.00;99965.06;6537036;21;20000;-79
2024/04/16 04:36:39;;;;;;;0.00;0.00;;;;;;;6.00;100.00;99929.22;6538342;21;20008;-79
2024/04/16 04:39:08;;;;;;;0.10;0.10;;;;;;;6.10;100.00;99954.66;6538967;21;20005;-80
2024/04/16 04:42:33;;;;;;;0.00;0.00;;;;;;;5.94;100.00;99936.41;6495376;21;19997;-80
2024/04/16 04:48:45;;;;;;;;;;;;;;;;;;;;;
2024/04/16 04:51:08;;;;;;;0.00;0.00;;;;;;;6.08;100.00;99980.38;6319910;22;20233;-80
2024/04/16 04:53:33;;;;;;;0.10;0.10;;;;;;;5.76;100.00;99935.59;6285161;22;20499;-80
2024/04/16 04:56:25;;;;;;;0.00;0.00;;;;;;;5.90;100.00;99965.16;6283884;22;20004;-81
2024/04/16 04:59:09;;;;;;;0.00;0.00;;;;;;;6.16;100.00;100009.81;6274080;22;20010;-79
2024/04/16 05:01:47;;;;;;;;;;;;;;;;;;;;;
2024/04/16 05:04:36;;;;;;;0.00;0.00;;;;;;;5.92;100.00;99976.56;6374937;21;20429;-79
2024/04/16 05:07:07;;;;;;;0.00;0.00;;;;;;;5.94;100.00;99969.00;6581607;21;19985;-80
2024/04/16 05:09:59;;;;;;;0.00;0.00;;;;;;;6.18;100.00;100004.97;6496570;21;20008;-79
2024/04/16 05:12:24;;;;;;;0.00;0.00;;;;;;;6.09;100.00;99992.91;6333800;22;20003;-79
2024/04/16 05:15:08;;;;;;;0.00;0.00;;;;;;;6.20;100.00;100013.69;6511532;21;20276;-79
2024/04/16 05:17:33;;;;;;;0.00;0.00;;;;;;;6.29;100.00;100024.97;6537171;21;20070;-81
2024/04/16 05:20:29;;;;;;;;;;;;;;;;;;;;;
2024/04/16 05:23:36;;;;;;;0.00;0.00;;;;;;;6.17;100.00;100002.53;6581990;21;19996;-79
2024/04/16 05:29:32;;;;;;;0.00;0.00;;;;;;;6.16;100.00;100004.38;6410233;22;19999;-80
2024/04/16 05:35:57;;;;;;;0.00;0.00;;;;;;;6.00;100.00;99976.19;6433361;21;20007;-79
2024/04/16 05:38:36;;;;;;;;;;;;;;;;;;;;;
2024/04/16 05:41:04;;;;;;;0.10;0.10;;;;;;;6.34;100.00;100022.34;6584157;21;20011;-79
2024/04/16 05:43:30;;;;;;;0.00;0.00;;;;;;;6.52;100.00;100053.03;6537754;21;19992;-78
2024/04/16 05:46:00;;;;;;;0.00;0.00;;;;;;;6.11;100.00;99986.13;6582375;21;20011;-79
2024/04/16 05:48:36;;;;;;;0.00;0.00;;;;;;;6.40;100.00;100015.91;6535909;21;20011;-78
2024/04/16 05:51:04;;;;;;;0.00;0.00;;;;;;;6.54;100.00;100035.41;6492497;21;19996;-78
2024/04/16 05:53:30;;;;;;;0.00;0.00;;;;;;;6.61;100.00;100032.50;6492917;21;20051;-78
2024/04/16 05:56:11;;;;;;;0.10;0.10;;;;;;;6.73;100.00;100055.00;6450008;21;20000;-76
2024/04/16 05:58:37;;;;;;;0.00;0.00;;;;;;;6.46;100.00;100014.91;6537410;21;19997;-78
2024/04/16 06:01:20;;;;;;;;;;;;;;;;;;;;;
2024/04/16 06:10:33;;;;;;;0.00;0.00;;;;;;;6.72;100.00;100047.91;6580735;21;20002;-75
2024/04/16 06:13:01;;;;;;;0.00;0.00;;;;;;;6.70;100.00;100031.03;6534298;21;19985;-75
2024/04/16 06:15:37;;;;;;;0.00;0.00;;;;;;;6.93;100.00;100045.47;6535731;21;20011;-75
2024/04/16 06:30:35;;;;;;;0.00;0.00;;;;;;;6.80;100.00;100052.91;6428389;21;19926;-75
2024/04/16 06:33:12;;;;;;;0.00;0.00;;;;;;;6.72;100.00;100037.03;6421918;22;19998;-74
2024/04/16 06:35:37;;;;;;;0.00;0.00;;;;;;;7.00;100.00;100051.53;6423506;22;20009;-76
2024/04/16 06:38:03;;;;;;;0.00;0.00;;;;;;;7.30;100.00;100051.13;6340487;22;19999;-75
2024/04/16 06:40:28;;;;;;;0.00;0.00;;;;;;;7.46;100.00;100040.41;6379159;22;19998;-74
2024/04/16 06:42:54;;;;;;;0.10;0.10;;;;;;;7.76;100.00;100086.19;6379636;22;19998;-76
2024/04/16 06:45:24;;;;;;;0.00;0.00;;;;;;;7.59;100.00;100052.78;6424679;22;19998;-73
2024/04/16 06:54:50;;;;;;;0.00;0.00;;;;;;;7.63;100.00;100059.38;6049669;23;20431;-79
2024/04/16 06:57:18;;;;;;;0.00;0.00;;;;;;;7.58;100.00;100052.00;6227538;23;20433;-73
2024/04/16 06:59:53;;;;;;;;;;;;;;;;;;;;;
2024/04/16 07:02:29;;;;;;;0.10;0.10;;;;;;;7.63;100.00;100062.09;6425316;22;20428;-74
2024/04/16 07:05:09;;;;;;;0.00;0.00;;;;;;;7.93;100.00;100096.16;6422446;22;20130;-73
2024/04/16 07:07:40;;;;;;;0.00;0.00;;;;;;;7.96;100.00;100095.66;6378406;22;20017;-74
2024/04/16 07:10:26;;;;;;;0.00;0.00;;;;;;;8.20;100.00;100129.66;6341221;22;19998;-76
2024/04/16 07:13:21;;;;;;;0.00;0.00;;;;;;;7.98;100.00;100082.59;6380289;22;20002;-76
2024/04/16 07:15:54;;;;;;;0.00;0.00;;;;;;;8.29;100.00;100131.94;6382644;22;19997;-74
2024/04/16 07:18:26;;;;;;;0.10;0.10;;;;;;;8.18;99.90;100107.31;6384253;22;20003;-72
2024/04/16 07:20:54;;;;;;;0.00;0.00;;;;;;;8.23;99.74;100105.72;6392685;22;19994;-72
2024/04/16 07:23:40;;;;;;;0.00;0.00;;;;;;;8.20;98.30;100096.16;6381435;22;20019;-74
2024/04/16 07:26:21;;;;;;;;;;;;;;;;;;;;;
2024/04/16 07:28:49;;;;;;;0.00;0.00;;;;;;;8.42;97.50;100098.81;6426705;21;20057;-73
2024/04/16 07:31:18;;;;;;;0.10;0.10;;;;;;;8.80;96.91;100131.56;6478654;22;20383;-73
2024/04/16 07:33:55;;;;;;;0.00;0.00;;;;;;;9.07;95.64;100136.97;6525920;22;19997;-74
2024/04/16 07:36:34;;;;;;;0.00;0.00;;;;;;;9.46;93.32;100161.16;6521868;22;20007;-74
2024/04/16 07:39:09;;;;;;;;;;;;;;;;;;;;;
2024/04/16 07:41:39;;;;;;;0.00;0.00;;;;;;;9.44;89.97;100114.22;6524856;22;20008;-74
2024/04/16 07:44:25;;;;;;;0.00;0.00;;;;;;;9.58;88.43;100120.03;6478606;22;20004;-74
2024/04/16 07:46:50;;;;;;;0.10;0.10;;;;;;;9.38;88.03;100123.47;6521476;22;20135;-73
2024/04/16 07:49:22;;;;;;;0.00;0.00;;;;;;;9.29;91.07;100123.16;6477824;22;20435;-74
2024/04/16 07:52:00;;;;;;;0.00;0.00;;;;;;;9.16;89.29;100110.81;6478677;22;20013;-74
2024/04/16 07:54:28;;;;;;;0.00;0.00;;;;;;;9.44;89.63;100138.78;6521276;22;19993;-74
2024/04/16 07:57:01;;;;;;;0.00;0.00;;;;;;;9.83;89.17;100171.19;6478819;22;20352;-75
2024/04/16 07:59:27;;;;;;;0.00;0.00;;;;;;;10.06;85.42;100133.53;6521169;22;19997;-74
2024/04/16 08:01:55;;;;;;;0.00;0.00;;;;;;;10.43;86.90;100136.09;6480172;22;20007;-74
2024/04/16 08:05:05;;;;;;;0.00;0.00;;;;;;;10.92;82.81;100121.06;6477746;22;20005;-74
2024/04/16 08:07:15;;;;;;;0.00;0.00;;;;;;;11.48;80.18;100132.97;6466967;22;20008;-74
2024/04/16 08:09:41;;;;;;;0.00;0.00;;;;;;;11.49;78.78;100118.16;6481326;22;20016;-73
2024/04/16 08:12:07;;;;;;;0.00;0.00;;;;;;;11.38;77.69;100160.38;6479495;22;20005;-74
2024/04/16 08:14:41;;;;;;;0.00;0.00;;;;;;;11.15;78.81;100168.88;6475227;22;20079;-74
2024/04/16 08:17:06;;;;;;;0.00;0.00;;;;;;;11.22;81.82;100160.41;6523834;22;20162;-74
2024/04/16 08:19:32;;;;;;;0.00;0.00;;;;;;;11.44;79.78;100148.31;6479231;22;20012;-74
2024/04/16 08:21:58;;;;;;;0.00;0.00;;;;;;;11.82;76.76;100170.63;6478864;22;20056;-74
2024/04/16 08:24:28;;;;;;;0.00;0.00;;;;;;;11.67;76.13;100146.88;6526462;22;20320;-74
2024/04/16 08:27:01;;;;;;;0.00;0.00;;;;;;;11.78;76.29;100159.41;6481347;22;19997;-74
2024/04/16 08:29:35;;;;;;;0.00;0.00;;;;;;;11.69;76.50;100145.47;6514157;21;19998;-73
2024/04/16 08:32:00;;;;;;;0.00;0.00;;;;;;;12.26;74.71;100180.84;6514390;22;20077;-73
2024/04/16 08:34:38;;;;;;;;;;;;;;;;;;;;;
2024/04/16 08:37:06;;;;;;;0.00;0.00;;;;;;;12.88;74.09;100185.91;6522837;22;20332;-74
2024/04/16 08:39:35;;;;;;;0.00;0.00;;;;;;;12.85;69.77;100180.97;6524276;22;20021;-74
2024/04/16 08:42:22;;;;;;;0.00;0.00;;;;;;;13.00;69.67;100178.09;6478617;22;20009;-73
2024/04/16 08:44:48;;;;;;;0.00;0.00;;;;;;;15.31;64.51;100181.66;6519463;22;20015;-74
2024/04/16 08:47:24;;;;;;;0.00;0.00;;;;;;;15.77;60.20;100189.03;6476604;22;20787;-73
2024/04/16 08:49:52;;;;;;;0.00;0.00;;;;;;;15.81;57.32;100167.19;6526918;22;19997;-75
2024/04/16 08:52:19;;;;;;;0.00;0.00;;;;;;;16.26;55.37;100172.03;6523020;22;20471;-75
2024/04/16 08:55:00;;;;;;;0.00;0.00;;;;;;;16.12;55.40;100167.38;6481322;22;20008;-74
2024/04/16 08:57:31;;;;;;;0.00;0.00;;;;;;;16.62;54.29;100173.94;6476974;22;20005;-75
2024/04/16 08:59:59;;;;;;;0.00;0.00;;;;;;;18.52;54.08;100195.63;6483373;22;20010;-72
2024/04/16 09:02:30;;;;;;;0.00;0.00;;;;;;;21.87;46.14;100178.16;6478920;22;19997;-74
2024/04/16 09:04:59;;;;;;;0.00;0.00;;;;;;;21.87;40.27;100194.84;6481943;22;19997;-73
2024/04/16 09:07:30;;;;;;;0.00;0.00;;;;;;;21.10;41.65;100169.25;6436454;22;20008;-73
2024/04/16 09:09:59;;;;;;;0.00;0.00;;;;;;;21.44;41.92;100161.66;6522823;22;20015;-75
2024/04/16 09:16:22;;;;;;;;;;;;;;;;;;;;;
2024/04/16 09:19:36;;;;;;;0.00;0.00;;;;;;;29.83;29.91;100164.72;6524795;22;19997;-73
2024/04/16 09:21:59;;;;;;;0.00;0.00;;;;;;;27.36;29.93;100208.16;6523714;22;19993;-74
2024/04/16 09:24:42;;;;;;;0.00;0.00;;;;;;;25.18;34.43;100222.94;6478845;22;19985;-73
2024/04/16 09:27:54;;;;;;;;;;;;;;;;;;;;;
2024/04/16 09:31:46;;;;;;;0.00;0.00;;;;;;;23.47;38.73;100194.34;6499095;22;19993;-73
2024/04/16 09:34:14;;;;;;;0.00;0.00;;;;;;;19.66;39.60;100160.97;6460258;22;20005;-74
2024/04/16 09:36:56;;;;;;;0.00;0.00;;;;;;;18.01;43.79;100184.16;6476889;22;19997;-73
2024/04/16 09:40:13;;;;;;;0.00;0.00;;;;;;;20.39;44.41;100159.09;6480808;22;20001;-73
2024/04/16 09:42:52;;;;;;;;;;;;;;;;;;;;;
2024/04/16 09:45:33;;;;;;;;;;;;;;;;;;;;;
2024/04/16 09:48:20;;;;;;;0.00;0.00;;;;;;;20.61;41.27;100160.69;6525477;22;20006;-73
2024/04/16 09:51:20;;;;;;;0.00;0.00;;;;;;;20.89;41.87;100235.16;6478805;22;20008;-74
2024/04/16 09:54:26;;;;;;;0.00;0.00;;;;;;;20.66;41.84;100232.75;6428461;22;20041;-76
2024/04/16 09:57:02;;;;;;;;;;;;;;;19.56;39.63;100230.69;6476226;22;19997;-74
2024/04/16 10:00:17;;;;;;;0.00;0.00;;;;;;;18.00;42.26;100177.00;6482074;22;19922;-73
2024/04/16 10:02:45;;;;;;;0.00;0.00;;;;;;;20.28;43.58;100199.50;6423735;21;19990;-74
2024/04/16 10:06:18;;;;;;;;;;;;;;;;;;;;;
2024/04/16 10:08:48;;;;;;;0.00;0.00;;;;;;;30.62;24.76;100226.59;6522799;22;20001;-72
2024/04/16 10:11:47;;;;;;;0.00;0.00;;;;;;;26.57;28.80;100203.19;6522963;22;19997;-74
2024/04/16 10:14:23;;;;;;;;;;;;;;;;;;;;;
2024/04/16 10:17:47;;;;;;;;;;;;;;;;;;;;;
2024/04/16 10:20:23;;;;;;;0.00;0.00;;;;;;;24.20;30.87;100222.06;6512631;22;20071;-74
2024/04/16 10:23:29;;;;;;;;;;;;;;;;;;;;;
2024/04/16 10:26:16;;;;;;;0.00;0.00;;;;;;;22.66;33.75;100227.94;6230507;23;20001;-73
2024/04/16 10:28:59;;;;;;;0.00;0.00;;;;;;;20.96;34.25;100201.28;6196069;23;20008;-74
2024/04/16 10:31:34;;;;;;;0.00;0.00;;;;;;;22.29;38.56;100226.00;6215341;23;20301;-73
2024/04/16 10:34:25;;;;;;;0.00;0.00;;;;;;;29.07;31.34;100224.56;6191219;23;20033;-74
2024/04/16 10:37:49;;;;;;;0.00;0.00;;;;;;;33.66;21.89;100216.81;6131633;22;20053;-74
2024/04/16 10:40:58;;;;;;;0.00;0.00;;;;;;;32.62;23.14;100227.53;6269128;22;19993;-74
2024/04/16 10:43:37;;;;;;;0.00;0.00;;;;;;;32.53;19.72;100233.72;6161684;23;20027;-74
2024/04/16 10:46:55;;;;;;;0.00;0.00;;;;;;;33.69;22.18;100198.97;6205475;22;20029;-74
2024/04/16 10:49:28;;;;;;;;;;;;;;;;;;;;;
2024/04/16 10:51:57;;;;;;;0.00;0.00;;;;;;;40.78;17.11;100210.16;6528554;22;20012;-75
2024/04/16 10:57:48;;;;;;;0.00;0.00;;;;;;;35.44;16.03;100187.31;6470647;22;20008;-74
2024/04/16 11:00:17;;;;;;;0.00;0.00;;;;;;;33.67;17.89;100209.91;6525553;22;20001;-74
2024/04/16 11:02:44;;;;;;;0.00;0.00;;;;;;;34.16;17.08;100210.28;6437564;22;20011;-75
2024/04/16 11:05:10;;;;;;;0.00;0.00;;;;;;;36.86;15.34;100208.75;6528629;22;20008;-75
2024/04/16 11:07:39;;;;;;;0.00;0.00;;;;;;;40.64;14.04;100205.91;6524017;22;20001;-74
2024/04/16 11:10:33;;;;;;;0.00;0.00;;;;;;;37.51;13.25;100212.41;6530345;22;20009;-74
2024/04/16 11:15:57;;;;;;;0.00;0.00;;;;;;;26.34;21.19;100147.22;6455743;22;20430;-75
2024/04/16 11:18:55;;;;;;;;;;;;;;;;;;;;;
2024/04/16 11:21:22;;;;;;;0.00;0.00;;;;;;;31.85;19.62;100154.00;6508430;22;20007;-73
2024/04/16 11:23:49;;;;;;;0.00;0.00;;;;;;;31.10;19.14;100168.72;6525873;22;20020;-74
2024/04/16 11:26:31;;;;;;;0.00;0.00;;;;;;;28.09;20.07;100179.47;6524133;22;20084;-75
2024/04/16 11:29:10;;;;;;;0.00;0.00;;;;;;;24.75;23.00;100174.56;6444758;22;19997;-75
2024/04/16 11:31:36;;;;;;;0.00;0.00;;;;;;;23.06;25.32;100204.78;6529618;22;20012;-75
2024/04/16 11:34:13;;;;;;;0.00;0.00;;;;;;;24.66;26.28;100211.16;6529720;22;20001;-74
2024/04/16 11:37:21;;;;;;;0.00;0.00;;;;;;;27.46;22.24;100207.44;6529159;22;20412;-74
2024/04/16 11:39:52;;;;;;;0.00;0.00;;;;;;;26.67;22.66;100178.50;6462105;22;20004;-74
2024/04/16 11:45:17;;;;;;;;;;;;;;;;;;;;;
2024/04/16 11:47:52;;;;;;;0.00;0.00;;;;;;;22.90;26.71;100156.56;6529213;22;20008;-74
2024/04/16 11:50:24;;;;;;;0.00;0.00;;;;;;;22.37;27.41;100207.59;6528009;22;20015;-74
2024/04/16 11:52:49;;;;;;;0.00;0.00;;;;;;;21.27;28.61;100161.84;6524673;22;20052;-73
2024/04/16 11:55:25;;;;;;;0.00;0.00;;;;;;;20.80;30.09;100156.63;6481902;22;20004;-74
2024/04/16 11:57:53;;;;;;;0.00;0.00;;;;;;;22.00;30.46;100153.91;6524389;22;20008;-75
2024/04/16 12:00:19;;;;;;;0.00;0.00;;;;;;;28.16;26.16;100193.56;6527398;22;20016;-74
2024/04/16 12:02:45;;;;;;;0.00;0.00;;;;;;;30.37;22.06;100218.97;6482855;22;20305;-74
2024/04/16 12:05:10;;;;;;;0.00;0.00;;;;;;;27.83;22.18;100181.28;6486428;22;20052;-72
2024/04/16 12:07:36;;;;;;;0.00;0.00;;;;;;;24.94;24.66;100175.72;6527070;22;20008;-74
2024/04/16 12:10:15;;;;;;;0.00;0.00;;;;;;;22.83;26.59;100191.41;6530289;22;20421;-73
2024/04/16 12:12:46;;;;;;;0.00;0.00;;;;;;;22.43;28.71;100172.75;6439967;22;19989;-75
2024/04/16 12:15:42;;;;;;;;;;;;;;;;;;;;;
2024/04/16 12:18:26;;;;;;;0.00;0.00;;;;;;;32.81;21.10;100164.66;6484820;22;20008;-75
2024/04/16 12:21:00;;;;;;;0.00;0.00;;;;;;;33.51;18.94;100177.38;6478749;22;20012;-75
2024/04/16 12:23:33;;;;;;;0.00;0.00;;;;;;;33.80;19.23;100204.47;6479861;22;20037;-73
2024/04/16 12:26:19;;;;;;;0.00;0.00;;;;;;;31.94;19.35;100192.31;6481020;22;19997;-75
2024/04/16 12:28:55;;;;;;;;;;;;;;;;;;;;;
2024/04/16 12:31:24;;;;;;;0.00;0.00;;;;;;;38.71;13.70;100172.75;6522365;22;20001;-73
2024/04/16 12:33:52;;;;;;;0.00;0.00;;;;;;;40.22;12.78;100191.47;6480596;22;20396;-73
2024/04/16 12:36:22;;;;;;;0.00;0.00;;;;;;;39.70;11.90;100186.31;6525608;22;20443;-74
2024/04/16 12:39:01;;;;;;;0.00;0.00;;;;;;;36.08;14.33;100178.41;6437368;22;20004;-74
2024/04/16 12:41:26;;;;;;;0.00;0.00;;;;;;;32.04;17.02;100199.88;6480510;22;20001;-74
2024/04/16 12:43:59;;;;;;;0.00;0.00;;;;;;;28.64;19.33;100178.59;6522994;22;19997;-74
2024/04/16 12:46:46;;;;;;;0.00;0.00;;;;;;;26.22;22.00;100192.31;6463007;22;20082;-74
2024/04/16 12:49:32;;;;;;;;;;;;;;;;;;;;;
2024/04/16 12:52:00;;;;;;;0.00;0.00;;;;;;;31.19;20.47;100171.06;6525006;22;20016;-73
2024/04/16 12:54:38;;;;;;;;;;;;;;;;;;;;;
2024/04/16 12:57:16;;;;;;;;;;;;;;;;;;;;;
2024/04/16 12:59:45;;;;;;;0.00;0.00;;;;;;;42.76;11.88;100210.84;6483243;22;19993;-74
2024/04/16 13:02:13;;;;;;;0.00;0.00;;;;;;;45.32;11.68;100195.34;6483521;22;19993;-75
2024/04/16 13:04:56;;;;;;;0.00;0.00;;;;;;;46.87;10.27;100204.81;6479300;22;20075;-74
2024/04/16 13:07:27;;;;;;;0.00;0.00;;;;;;;46.91;9.71;100187.97;6452296;22;19997;-74
2024/04/16 13:09:54;;;;;;;0.00;0.00;;;;;;;42.56;10.05;100177.81;6514789;22;20000;-73
2024/04/16 13:12:22;;;;;;;0.00;0.00;;;;;;;41.67;11.28;100169.00;6480549;22;20312;-74
2024/04/16 13:14:47;;;;;;;0.00;0.00;;;;;;;42.62;10.34;100188.66;6479901;22;20005;-75
2024/04/16 13:17:13;;;;;;;0.00;0.00;;;;;;;43.99;9.83;100198.03;6524985;22;20343;-74
2024/04/16 13:20:29;;;;;;;0.00;0.00;;;;;;;42.20;10.52;100171.16;6521564;22;20005;-74
2024/04/16 13:23:15;;;;;;;0.00;0.00;;;;;;;36.19;12.42;100150.44;6524233;22;19997;-74
2024/04/16 13:25:47;;;;;;;0.00;0.00;;;;;;;32.75;15.28;100205.97;6525306;22;19997;-75
2024/04/16 13:28:28;;;;;;;;;;;;;;;;;;;;;
2024/04/16 13:31:03;;;;;;;0.00;0.00;;;;;;;30.29;18.84;100177.91;6528916;21;20005;-74
2024/04/16 13:33:45;;;;;;;0.00;0.00;;;;;;;33.56;18.33;100202.41;6480528;22;20017;-75
2024/04/16 13:36:19;;;;;;;0.00;0.00;;;;;;;39.43;14.04;100167.81;6527268;22;20392;-74
2024/04/16 13:38:44;;;;;;;0.00;0.00;;;;;;;43.11;12.27;100194.94;6532067;22;20005;-74
2024/04/16 13:41:13;;;;;;;0.00;0.00;;;;;;;44.73;10.91;100196.72;6528228;22;19997;-74
2024/04/16 13:43:58;;;;;;;0.00;0.00;;;;;;;45.92;10.42;100172.31;6485366;22;20008;-74
2024/04/16 13:46:24;;;;;;;0.00;0.00;;;;;;;46.75;9.67;100159.88;6527727;22;20277;-75
2024/04/16 13:48:57;;;;;;;0.00;0.00;;;;;;;47.52;9.98;100188.41;6480043;22;20049;-74
2024/04/16 13:51:26;;;;;;;;;;;;;;;48.23;9.44;100201.53;6527208;22;19997;-76
2024/04/16 13:54:05;;;;;;;0.00;0.00;;;;;;;48.00;8.71;100195.88;6522848;22;19930;-74
2024/04/16 13:56:46;;;;;;;0.00;0.00;;;;;;;43.30;10.36;100155.22;6481619;22;20013;-74
2024/04/16 13:59:49;;;;;;;0.00;0.00;;;;;;;38.98;11.73;100174.16;6519477;22;20718;-74
2024/04/16 14:02:23;;;;;;;0.00;0.00;;;;;;;34.77;14.28;100162.88;6471131;22;19997;-74
2024/04/16 14:05:07;;;;;;;0.00;0.00;;;;;;;32.50;16.34;100167.44;6467995;22;20001;-74
2024/04/16 14:07:32;;;;;;;0.00;0.00;;;;;;;31.72;17.25;100186.84;6476140;22;20001;-72
2024/04/16 14:10:01;;;;;;;0.00;0.00;;;;;;;30.24;17.62;100152.94;6434411;22;20005;-74
2024/04/16 14:12:57;;;;;;;;;;;;;;;;;;;;;
2024/04/16 14:15:22;;;;;;;0.00;0.00;;;;;;;25.26;21.63;100182.75;6521854;22;19997;-73
2024/04/16 14:18:11;;;;;;;;;;;;;;;;;;;;;
2024/04/16 14:20:46;;;;;;;0.00;0.00;;;;;;;23.07;23.77;100139.50;6485323;22;20012;-75
2024/04/16 14:23:12;;;;;;;0.00;0.00;;;;;;;27.50;21.65;100140.91;6527152;22;20327;-74
2024/04/16 14:25:47;;;;;;;0.00;0.00;;;;;;;30.05;17.45;100171.94;6524411;22;19997;-74
2024/04/16 14:28:18;;;;;;;0.00;0.00;;;;;;;32.30;17.49;100204.06;6526400;22;20009;-75
2024/04/16 14:31:05;;;;;;;0.00;0.00;;;;;;;37.02;14.93;100148.81;6477953;22;20019;-75
2024/04/16 14:33:48;;;;;;;0.00;0.00;;;;;;;40.17;11.94;100178.56;6423122;22;20337;-75
2024/04/16 14:36:17;;;;;;;0.00;0.00;;;;;;;41.58;11.37;100154.72;6477517;22;20027;-74
2024/04/16 14:38:42;;;;;;;0.00;0.00;;;;;;;42.35;11.27;100176.09;6527879;22;20012;-75
2024/04/16 14:41:10;;;;;;;0.00;0.00;;;;;;;42.67;10.33;100167.81;6522743;22;20348;-75
2024/04/16 14:44:34;;;;;;;0.00;0.00;;;;;;;43.16;10.00;100185.63;6481287;22;20009;-75
2024/04/16 14:48:10;;;;;;;;;;;;;;;;;;;;;
2024/04/16 14:50:45;;;;;;;0.00;0.00;;;;;;;38.30;11.24;100124.06;6526027;22;20000;-75
2024/04/16 14:53:48;;;;;;;;;;;;;;;;;;;;;
2024/04/16 15:00:39;;;;;;;0.00;0.00;;;;;;;32.76;15.37;100133.97;6326396;22;19999;-75
2024/04/16 15:03:34;;;;;;;0.00;0.00;;;;;;;37.59;13.86;100133.94;6365888;22;20002;-74
2024/04/16 15:28:49;;;;;;;0.00;0.00;;;;;;;40.75;10.76;100159.53;6424213;22;20043;-76
2024/04/16 15:35:43;;;;;;;;;;;;;;;;;;;;;